Time;durP1;ratioP1;P1;durP2;ratioP2;P2;SDS_P1;SDS_P2;PMS_P1;PMS_P2;Temp;Humidity;BMP_temperature;BMP_pressure;BME280_temperature;BME280_humidity;BME280_pressure;Samples;Min_cycle;Max_cycle;Signal;HPM_P1;HPM_P2
2024/03/15 00:02:14;;;;;;;6.60;2.65;;;13.10;99.90;;;;;;5044870;28;20555;-61
2024/03/15 00:04:41;;;;;;;8.02;2.92;;;13.10;99.90;;;;;;5040282;28;20068;-62
2024/03/15 00:07:07;;;;;;;9.05;3.30;;;;;;;;;;5053699;28;20032;-62
2024/03/15 00:09:32;;;;;;;7.20;2.90;;;13.00;99.90;;;;;;5053912;28;20100;-63
2024/03/15 00:12:01;;;;;;;9.30;3.55;;;13.00;99.90;;;;;;5044386;28;20097;-62
2024/03/15 00:14:27;;;;;;;8.15;2.88;;;12.90;99.90;;;;;;5050774;28;20712;-63
2024/03/15 00:16:53;;;;;;;8.05;3.42;;;12.80;99.90;;;;;;5048703;28;20056;-62
2024/03/15 00:19:22;;;;;;;7.18;3.17;;;12.80;99.90;;;;;;5046323;28;20020;-63
2024/03/15 00:21:48;;;;;;;8.30;3.47;;;12.80;99.90;;;;;;5049872;28;20465;-62
2024/03/15 00:24:15;;;;;;;7.85;3.20;;;12.70;99.90;;;;;;5045421;28;20064;-63
2024/03/15 00:26:41;;;;;;;10.52;3.70;;;12.70;99.90;;;;;;5044741;28;20040;-63
2024/03/15 00:29:08;;;;;;;7.97;3.30;;;12.60;99.90;;;;;;5047131;28;20033;-63
2024/03/15 00:31:34;;;;;;;8.68;3.38;;;12.60;99.90;;;;;;5047085;28;20121;-62
2024/03/15 00:34:00;;;;;;;8.32;3.25;;;12.60;99.90;;;;;;5051753;28;20025;-63
2024/03/15 00:36:26;;;;;;;8.35;3.33;;;12.60;99.90;;;;;;5047690;28;20094;-63
2024/03/15 00:38:54;;;;;;;9.07;3.45;;;12.60;99.90;;;;;;5048759;28;20033;-63
2024/03/15 00:41:21;;;;;;;8.27;3.28;;;12.50;99.90;;;;;;5049859;28;20026;-62
2024/03/15 00:43:47;;;;;;;9.73;3.40;;;12.50;99.90;;;;;;5043093;28;20062;-63
2024/03/15 00:46:13;;;;;;;8.70;3.38;;;12.60;99.90;;;;;;5037316;28;20033;-63
2024/03/15 00:48:40;;;;;;;7.53;3.58;;;12.50;99.90;;;;;;5041567;28;20036;-63
2024/03/15 00:51:06;;;;;;;10.05;3.35;;;12.50;99.90;;;;;;5040973;28;20029;-63
2024/03/15 00:53:31;;;;;;;9.70;3.60;;;12.40;99.90;;;;;;5036598;28;20033;-63
2024/03/15 00:55:57;;;;;;;7.35;3.10;;;12.50;99.90;;;;;;5037830;28;20029;-63
2024/03/15 00:58:23;;;;;;;9.60;3.80;;;12.50;99.90;;;;;;5036065;28;20021;-63
2024/03/15 01:00:49;;;;;;;10.27;3.20;;;12.50;99.90;;;;;;5038189;28;20021;-63
2024/03/15 01:03:21;;;;;;;7.68;2.92;;;12.50;99.90;;;;;;5037517;28;20029;-63
2024/03/15 01:05:46;;;;;;;9.93;3.60;;;12.50;99.90;;;;;;5039093;28;20028;-62
2024/03/15 01:08:13;;;;;;;7.43;3.10;;;12.50;99.90;;;;;;5037658;28;20105;-63
2024/03/15 01:10:38;;;;;;;9.25;3.28;;;12.50;99.90;;;;;;5043063;28;20055;-63
2024/03/15 01:13:05;;;;;;;7.50;3.20;;;12.50;99.90;;;;;;5040448;28;20432;-63
2024/03/15 01:15:31;;;;;;;7.82;2.92;;;12.50;99.90;;;;;;5045219;28;20056;-63
2024/03/15 01:17:56;;;;;;;8.75;3.25;;;12.50;99.90;;;;;;5039263;28;20037;-63
2024/03/15 01:20:22;;;;;;;9.98;3.28;;;12.40;99.90;;;;;;5041031;28;20020;-63
2024/03/15 01:22:47;;;;;;;7.47;2.97;;;12.50;99.90;;;;;;5036521;28;20438;-63
2024/03/15 01:25:16;;;;;;;8.98;3.38;;;12.50;99.90;;;;;;5038489;28;20029;-63
2024/03/15 01:27:42;;;;;;;8.63;3.05;;;12.50;99.90;;;;;;5044108;28;20016;-63
2024/03/15 01:30:10;;;;;;;7.70;3.33;;;12.40;99.90;;;;;;5037400;28;20104;-64
2024/03/15 01:32:36;;;;;;;6.93;2.95;;;12.30;99.90;;;;;;5039316;28;20129;-63
2024/03/15 01:35:05;;;;;;;9.32;3.17;;;12.20;99.90;;;;;;5038061;28;20025;-64
2024/03/15 01:37:31;;;;;;;7.03;2.83;;;12.20;99.90;;;;;;5039330;28;20057;-64
2024/03/15 01:39:57;;;;;;;7.70;2.85;;;12.20;99.90;;;;;;5039856;28;20532;-64
2024/03/15 01:42:23;;;;;;;8.88;3.65;;;12.10;99.90;;;;;;5041919;28;20027;-64
2024/03/15 01:44:54;;;;;;;9.23;3.00;;;12.10;99.90;;;;;;5039893;28;20380;-63
2024/03/15 01:47:26;;;;;;;6.97;2.78;;;12.10;99.90;;;;;;5046934;28;20036;-64
2024/03/15 01:49:53;;;;;;;7.85;3.13;;;12.10;99.90;;;;;;5041276;28;20031;-63
2024/03/15 01:52:20;;;;;;;8.00;2.85;;;12.10;99.90;;;;;;5043643;28;20032;-64
2024/03/15 01:54:46;;;;;;;8.23;2.80;;;12.10;99.90;;;;;;5038939;28;20033;-63
2024/03/15 01:57:14;;;;;;;8.77;2.90;;;12.10;99.90;;;;;;5040654;28;20025;-63
2024/03/15 01:59:41;;;;;;;8.40;3.15;;;12.10;99.90;;;;;;5043815;28;20024;-64
2024/03/15 02:02:09;;;;;;;9.90;3.30;;;12.10;99.90;;;;;;5040540;28;20486;-63
2024/03/15 02:04:38;;;;;;;8.65;3.35;;;12.20;99.90;;;;;;5042871;28;20021;-63
2024/03/15 02:07:03;;;;;;;8.88;3.00;;;12.20;99.90;;;;;;5041159;28;20124;-64
2024/03/15 02:09:30;;;;;;;7.50;2.78;;;12.20;99.90;;;;;;5040635;28;20049;-63
2024/03/15 02:11:55;;;;;;;7.53;3.22;;;12.20;99.90;;;;;;5045027;28;20112;-63
2024/03/15 02:14:21;;;;;;;7.72;3.10;;;12.20;99.90;;;;;;5042939;28;20491;-63
2024/03/15 02:16:47;;;;;;;9.85;3.20;;;12.10;99.90;;;;;;5042987;28;20083;-64
2024/03/15 02:19:14;;;;;;;7.55;3.25;;;12.20;99.90;;;;;;5040446;28;20030;-63
2024/03/15 02:21:43;;;;;;;7.95;3.10;;;12.20;99.90;;;;;;5045979;28;20473;-66
2024/03/15 02:24:10;;;;;;;10.80;2.92;;;12.10;99.90;;;;;;5049884;28;20411;-64
2024/03/15 02:26:39;;;;;;;8.38;3.25;;;12.10;99.90;;;;;;5038984;28;20099;-63
2024/03/15 02:29:05;;;;;;;8.68;3.35;;;12.20;99.90;;;;;;5041770;28;20032;-63
2024/03/15 02:31:31;;;;;;;10.50;3.70;;;12.10;99.90;;;;;;5041327;28;20396;-64
2024/03/15 02:33:57;;;;;;;10.55;3.40;;;12.10;99.90;;;;;;5041152;28;20033;-63
2024/03/15 02:36:24;;;;;;;8.27;3.03;;;12.10;99.90;;;;;;5045761;28;20025;-64
2024/03/15 02:38:49;;;;;;;7.75;3.00;;;12.10;99.90;;;;;;5039926;28;20059;-64
2024/03/15 02:41:15;;;;;;;9.82;3.42;;;12.10;99.90;;;;;;5040334;28;20018;-64
2024/03/15 02:43:41;;;;;;;8.77;2.97;;;12.10;99.90;;;;;;5041521;28;20026;-64
2024/03/15 02:46:07;;;;;;;9.15;2.80;;;12.10;99.90;;;;;;5039256;28;20076;-63
2024/03/15 02:48:38;;;;;;;10.27;2.95;;;12.10;99.90;;;;;;5045147;28;20477;-64
2024/03/15 02:51:07;;;;;;;8.98;2.97;;;12.00;99.90;;;;;;5041937;28;20649;-64
2024/03/15 02:53:33;;;;;;;8.32;2.70;;;11.90;99.90;;;;;;5039771;28;20060;-64
2024/03/15 02:56:02;;;;;;;8.82;3.38;;;12.00;99.90;;;;;;5039051;28;20029;-63
2024/03/15 02:58:30;;;;;;;7.53;2.92;;;11.90;99.90;;;;;;5041644;28;20074;-63
2024/03/15 03:00:56;;;;;;;13.43;3.60;;;11.80;99.90;;;;;;5049060;28;20034;-63
2024/03/15 03:03:22;;;;;;;7.35;2.92;;;11.80;99.90;;;;;;5041739;28;20032;-63
2024/03/15 03:05:47;;;;;;;7.97;3.00;;;11.80;99.90;;;;;;5038810;28;20112;-63
2024/03/15 03:08:16;;;;;;;8.82;3.15;;;11.70;99.90;;;;;;5041828;28;20029;-64
2024/03/15 03:10:42;;;;;;;7.82;3.17;;;11.80;99.90;;;;;;5041488;28;20504;-63
2024/03/15 03:13:08;;;;;;;8.15;2.97;;;11.70;99.90;;;;;;5040905;28;20021;-63
2024/03/15 03:15:34;;;;;;;8.48;3.10;;;11.70;99.90;;;;;;5039061;28;20060;-64
2024/03/15 03:18:00;;;;;;;8.40;3.33;;;11.70;99.90;;;;;;5039271;28;20029;-63
2024/03/15 03:20:32;;;;;;;9.88;3.03;;;11.70;99.90;;;;;;5046602;28;20028;-63
2024/03/15 03:23:02;;;;;;;7.35;3.00;;;11.80;99.90;;;;;;5038964;28;20032;-63
2024/03/15 03:25:28;;;;;;;7.60;3.13;;;11.70;99.90;;;;;;5039056;28;20024;-63
2024/03/15 03:27:54;;;;;;;9.05;3.38;;;11.80;99.90;;;;;;5039256;28;20029;-63
2024/03/15 03:30:20;;;;;;;9.48;3.30;;;11.70;99.90;;;;;;5040040;28;20028;-63
2024/03/15 03:32:45;;;;;;;8.93;2.70;;;11.70;99.90;;;;;;5041681;28;20024;-63
2024/03/15 03:35:11;;;;;;;10.85;3.03;;;11.80;99.90;;;;;;5038095;28;20038;-64
2024/03/15 03:37:37;;;;;;;7.57;3.08;;;11.90;99.90;;;;;;5042089;28;20083;-63
2024/03/15 03:40:15;;;;;;;9.25;2.90;;;;;;;;;;5036550;28;20049;-63
2024/03/15 03:42:44;;;;;;;7.78;2.85;;;11.80;99.90;;;;;;5037992;28;20508;-63
2024/03/15 03:45:16;;;;;;;10.65;3.13;;;11.80;99.90;;;;;;5037527;28;20021;-63
2024/03/15 03:47:46;;;;;;;8.75;3.13;;;11.80;99.90;;;;;;5041176;28;20048;-63
2024/03/15 03:50:12;;;;;;;11.05;3.00;;;11.80;99.90;;;;;;5045649;28;20055;-63
2024/03/15 03:52:41;;;;;;;8.98;2.97;;;11.80;99.90;;;;;;5040087;28;20398;-63
2024/03/15 03:55:07;;;;;;;9.20;2.85;;;11.70;99.90;;;;;;5036522;28;20361;-63
2024/03/15 03:57:36;;;;;;;8.38;2.72;;;11.80;99.90;;;;;;5037211;28;20028;-63
2024/03/15 04:00:14;;;;;;;8.32;3.08;;;11.80;99.90;;;;;;5037371;28;20018;-63
2024/03/15 04:02:46;;;;;;;8.65;2.85;;;12.00;99.90;;;;;;5037046;28;20112;-64
2024/03/15 04:05:18;;;;;;;7.50;2.60;;;12.00;99.90;;;;;;5040729;28;20529;-63
2024/03/15 04:07:46;;;;;;;6.80;2.78;;;12.00;99.90;;;;;;5040829;28;20032;-64
2024/03/15 04:10:14;;;;;;;8.07;2.85;;;12.00;99.90;;;;;;5036299;28;20554;-63
2024/03/15 04:12:40;;;;;;;6.47;2.60;;;12.10;99.90;;;;;;5041211;28;20025;-63
2024/03/15 04:15:07;;;;;;;9.35;2.97;;;12.10;99.90;;;;;;5038961;28;20425;-63
2024/03/15 04:17:35;;;;;;;9.57;2.97;;;12.10;99.90;;;;;;5037905;28;20068;-63
2024/03/15 04:20:00;;;;;;;6.20;2.47;;;12.10;99.90;;;;;;5043035;28;20383;-63
2024/03/15 04:22:26;;;;;;;7.05;2.80;;;12.20;99.90;;;;;;5041688;28;20028;-63
2024/03/15 04:24:52;;;;;;;7.85;2.80;;;12.20;99.90;;;;;;5035646;28;20436;-63
2024/03/15 04:27:18;;;;;;;7.00;2.80;;;12.20;99.90;;;;;;5037778;28;20384;-63
2024/03/15 04:29:44;;;;;;;11.57;2.97;;;12.30;99.90;;;;;;5035836;28;20087;-64
2024/03/15 04:32:10;;;;;;;7.13;2.28;;;12.20;99.90;;;;;;5039167;28;20114;-63
2024/03/15 04:34:37;;;;;;;10.63;3.63;;;12.30;99.90;;;;;;5037982;28;20505;-64
2024/03/15 04:37:05;;;;;;;8.23;2.92;;;12.30;99.90;;;;;;5042751;28;20396;-63
2024/03/15 04:39:32;;;;;;;7.45;2.80;;;12.30;99.90;;;;;;5037344;28;20377;-63
2024/03/15 04:41:57;;;;;;;8.43;2.80;;;12.20;99.90;;;;;;5040561;28;20029;-63
2024/03/15 04:44:23;;;;;;;7.13;2.55;;;13.90;99.90;;;;;;5038310;28;20083;-63
2024/03/15 04:46:49;;;;;;;7.78;2.85;;;12.30;99.90;;;;;;5039256;28;20033;-63
2024/03/15 04:49:15;;;;;;;11.40;2.50;;;12.30;99.90;;;;;;5038696;28;20029;-64
2024/03/15 04:51:40;;;;;;;7.57;2.72;;;12.30;99.90;;;;;;5044689;28;20039;-63
2024/03/15 04:54:08;;;;;;;8.35;3.03;;;12.30;99.90;;;;;;5037299;28;20392;-64
2024/03/15 04:56:34;;;;;;;6.90;2.67;;;12.30;99.90;;;;;;5038724;28;20033;-63
2024/03/15 04:59:00;;;;;;;6.88;2.60;;;12.30;99.90;;;;;;5036824;28;20031;-64
2024/03/15 05:01:25;;;;;;;7.22;2.70;;;12.40;99.90;;;;;;5040445;28;20444;-63
2024/03/15 05:03:51;;;;;;;9.43;2.45;;;12.40;99.90;;;;;;5039433;28;20040;-63
2024/03/15 05:06:16;;;;;;;6.97;2.80;;;12.40;99.90;;;;;;5038494;28;20369;-63
2024/03/15 05:08:42;;;;;;;7.85;2.88;;;12.40;99.90;;;;;;5037828;28;20532;-63
2024/03/15 05:11:08;;;;;;;8.13;2.60;;;12.30;99.90;;;;;;5040884;28;20044;-64
2024/03/15 05:13:35;;;;;;;7.88;2.70;;;12.30;99.90;;;;;;5040358;28;20565;-63
2024/03/15 05:16:01;;;;;;;10.32;3.40;;;12.30;99.90;;;;;;5040452;28;20110;-63
2024/03/15 05:18:29;;;;;;;9.35;3.17;;;12.20;99.90;;;;;;5044045;28;20423;-64
2024/03/15 05:20:55;;;;;;;10.88;3.10;;;12.10;99.90;;;;;;5046832;28;20147;-63
2024/03/15 05:23:20;;;;;;;7.88;2.65;;;12.10;99.90;;;;;;5043412;28;20112;-63
2024/03/15 05:25:46;;;;;;;8.82;2.88;;;12.00;99.90;;;;;;5040632;28;20017;-63
2024/03/15 05:28:12;;;;;;;10.27;2.90;;;11.90;99.90;;;;;;5041955;28;20476;-63
2024/03/15 05:30:37;;;;;;;6.55;2.45;;;11.90;99.90;;;;;;5043505;28;20120;-63
2024/03/15 05:33:03;;;;;;;10.05;2.83;;;11.80;99.90;;;;;;5038355;28;20025;-64
2024/03/15 05:35:29;;;;;;;8.98;3.00;;;11.80;99.90;;;;;;5042377;28;20524;-63
2024/03/15 05:37:55;;;;;;;9.00;2.97;;;11.90;99.90;;;;;;5040440;28;20040;-64
2024/03/15 05:40:26;;;;;;;10.38;2.97;;;;;;;;;;5042640;28;20368;-64
2024/03/15 05:42:53;;;;;;;13.18;2.83;;;12.00;99.90;;;;;;5040543;28;20504;-63
2024/03/15 05:45:20;;;;;;;8.15;3.00;;;12.00;99.90;;;;;;5041526;28;20044;-63
2024/03/15 05:47:46;;;;;;;7.35;2.78;;;12.10;99.90;;;;;;5035469;28;20032;-63
2024/03/15 05:50:12;;;;;;;7.72;2.67;;;12.10;99.90;;;;;;5045964;28;20016;-63
2024/03/15 05:52:39;;;;;;;7.70;2.80;;;12.20;99.90;;;;;;5040409;28;20322;-63
2024/03/15 05:55:04;;;;;;;8.10;2.80;;;12.20;99.90;;;;;;5038257;28;20691;-63
2024/03/15 05:57:30;;;;;;;9.15;3.10;;;12.30;99.90;;;;;;5042244;28;20025;-63
2024/03/15 05:59:56;;;;;;;9.13;2.88;;;12.30;99.90;;;;;;5036321;28;20530;-64
2024/03/15 06:02:21;;;;;;;9.73;2.72;;;12.30;99.90;;;;;;5042220;28;20025;-63
2024/03/15 06:04:47;;;;;;;8.68;2.80;;;12.20;99.90;;;;;;5042586;28;20530;-63
2024/03/15 06:07:13;;;;;;;10.13;3.03;;;12.20;99.90;;;;;;5034890;28;20838;-63
2024/03/15 06:09:39;;;;;;;7.47;2.90;;;12.10;99.90;;;;;;5041742;28;20065;-64
2024/03/15 06:12:05;;;;;;;7.53;2.88;;;12.00;99.90;;;;;;5040400;28;20029;-64
2024/03/15 06:14:31;;;;;;;7.45;2.97;;;11.90;99.90;;;;;;5044252;28;20116;-63
2024/03/15 06:16:57;;;;;;;6.82;2.72;;;11.80;99.90;;;;;;5041734;28;20041;-63
2024/03/15 06:19:23;;;;;;;9.88;3.42;;;11.80;99.90;;;;;;5042721;28;20028;-64
2024/03/15 06:21:49;;;;;;;8.00;3.45;;;11.70;99.90;;;;;;5043614;28;20026;-63
2024/03/15 06:24:19;;;;;;;7.75;2.83;;;11.70;99.90;;;;;;5042119;28;20024;-63
2024/03/15 06:26:47;;;;;;;8.68;3.00;;;11.70;99.90;;;;;;5040183;28;20064;-63
2024/03/15 06:29:16;;;;;;;7.82;3.00;;;11.60;99.90;;;;;;5039217;28;20033;-63
2024/03/15 06:31:42;;;;;;;8.90;3.20;;;11.70;99.90;;;;;;5038812;28;20454;-63
2024/03/15 06:34:08;;;;;;;8.98;3.50;;;11.70;99.90;;;;;;5042693;28;20353;-63
2024/03/15 06:36:41;;;;;;;9.45;3.10;;;11.70;99.90;;;;;;5040732;28;20036;-63
2024/03/15 06:39:40;;;;;;;9.13;3.65;;;11.80;99.90;;;;;;5042031;28;20025;-62
2024/03/15 06:42:23;;;;;;;8.55;3.60;;;11.80;99.90;;;;;;5041204;28;20033;-63
2024/03/15 06:45:03;;;;;;;11.10;3.10;;;11.80;99.90;;;;;;5040940;28;20028;-63
2024/03/15 06:47:31;;;;;;;9.15;3.55;;;11.80;99.90;;;;;;5041788;28;20090;-63
2024/03/15 06:50:08;;;;;;;10.63;3.50;;;11.80;99.90;;;;;;5043203;28;20031;-63
2024/03/15 06:52:34;;;;;;;8.18;3.50;;;11.90;99.90;;;;;;5039926;28;20022;-63
2024/03/15 06:55:04;;;;;;;9.18;3.63;;;12.10;99.90;;;;;;5040213;28;20029;-63
2024/03/15 06:57:32;;;;;;;9.52;3.58;;;12.00;99.90;;;;;;5036073;28;20053;-63
2024/03/15 06:59:58;;;;;;;9.65;3.50;;;12.10;99.90;;;;;;5045688;28;20024;-62
2024/03/15 07:02:24;;;;;;;8.57;2.85;;;12.10;99.90;;;;;;5036014;28;20032;-63
2024/03/15 07:04:50;;;;;;;9.73;3.45;;;12.10;99.90;;;;;;5037763;28;20036;-63
2024/03/15 07:07:22;;;;;;;6.97;3.03;;;12.20;99.90;;;;;;5035783;28;20034;-63
2024/03/15 07:09:47;;;;;;;9.88;3.53;;;12.20;99.90;;;;;;5035192;28;20040;-63
2024/03/15 07:12:14;;;;;;;10.93;3.53;;;12.30;99.90;;;;;;5044267;28;20412;-63
2024/03/15 07:14:43;;;;;;;7.47;3.10;;;12.30;99.90;;;;;;5040730;28;20140;-62
2024/03/15 07:17:09;;;;;;;9.85;3.50;;;12.40;99.90;;;;;;5045867;28;20034;-63
2024/03/15 07:19:36;;;;;;;9.13;3.13;;;12.50;99.90;;;;;;5045855;28;20025;-63
2024/03/15 07:22:03;;;;;;;10.15;3.15;;;12.50;99.90;;;;;;5048589;28;20096;-64
2024/03/15 07:24:29;;;;;;;8.40;3.10;;;12.60;99.90;;;;;;5041455;28;20029;-63
2024/03/15 07:26:54;;;;;;;7.40;3.03;;;12.60;99.90;;;;;;5042031;28;20040;-63
2024/03/15 07:29:20;;;;;;;8.75;3.22;;;12.70;99.90;;;;;;5043306;28;20465;-63
2024/03/15 07:31:46;;;;;;;8.70;3.33;;;12.90;99.90;;;;;;5045659;28;20040;-64
2024/03/15 07:34:13;;;;;;;8.23;2.78;;;12.90;99.90;;;;;;5046124;28;20029;-64
2024/03/15 07:36:39;;;;;;;9.48;2.80;;;13.00;99.90;;;;;;5042737;28;20035;-64
2024/03/15 07:39:07;;;;;;;10.50;2.90;;;13.10;99.90;;;;;;5042169;28;20692;-64
2024/03/15 07:41:34;;;;;;;7.07;2.47;;;13.10;99.90;;;;;;5040215;28;20389;-63
2024/03/15 07:44:00;;;;;;;9.32;3.33;;;13.20;99.90;;;;;;5040459;28;20025;-63
2024/03/15 07:46:26;;;;;;;9.75;2.63;;;13.20;99.90;;;;;;5042947;28;20021;-63
2024/03/15 07:48:52;;;;;;;10.10;3.80;;;13.20;99.90;;;;;;5042961;28;20038;-63
2024/03/15 07:51:18;;;;;;;8.75;3.20;;;13.20;99.90;;;;;;5041845;28;20029;-63
2024/03/15 07:53:45;;;;;;;8.35;3.05;;;13.30;99.90;;;;;;5046481;28;20037;-63
2024/03/15 07:56:11;;;;;;;9.93;3.38;;;13.30;99.90;;;;;;5046926;28;20033;-64
2024/03/15 07:58:37;;;;;;;12.57;3.80;;;13.40;99.90;;;;;;5039124;28;20032;-64
2024/03/15 08:01:07;;;;;;;9.63;3.10;;;13.50;99.90;;;;;;5037767;28;20396;-64
2024/03/15 08:03:34;;;;;;;8.60;2.97;;;13.40;99.90;;;;;;5041319;28;20037;-64
2024/03/15 08:06:00;;;;;;;10.00;3.33;;;13.50;99.90;;;;;;5039860;28;20032;-64
2024/03/15 08:08:27;;;;;;;10.82;3.10;;;13.50;99.90;;;;;;5033727;28;20664;-63
2024/03/15 08:10:52;;;;;;;9.35;2.67;;;13.60;99.90;;;;;;5040918;28;20022;-64
2024/03/15 08:13:22;;;;;;;8.85;3.00;;;13.70;99.90;;;;;;5041974;28;20105;-64
2024/03/15 08:16:09;;;;;;;7.93;2.93;;;13.70;99.90;;;;;;5045877;28;20048;-63
2024/03/15 08:18:34;;;;;;;8.43;3.28;;;13.80;99.90;;;;;;5040802;28;20260;-63
2024/03/15 08:21:00;;;;;;;9.82;3.05;;;13.80;99.90;;;;;;5040396;28;20103;-63
2024/03/15 08:23:26;;;;;;;8.77;2.70;;;13.70;99.90;;;;;;5035107;28;20384;-64
2024/03/15 08:25:51;;;;;;;7.43;2.72;;;13.80;99.90;;;;;;5041375;28;20032;-64
2024/03/15 08:28:17;;;;;;;6.72;2.90;;;13.90;99.90;;;;;;5039329;28;20094;-64
2024/03/15 08:30:47;;;;;;;10.38;3.08;;;14.00;99.90;;;;;;5041651;28;20244;-64
2024/03/15 08:33:13;;;;;;;6.43;2.63;;;14.00;99.90;;;;;;5037475;28;20025;-63
2024/03/15 08:35:38;;;;;;;9.13;3.13;;;14.00;99.90;;;;;;5041789;28;20059;-63
2024/03/15 08:38:04;;;;;;;7.32;2.72;;;13.90;99.90;;;;;;5043933;28;20033;-63
2024/03/15 08:40:30;;;;;;;8.38;2.83;;;13.80;99.90;;;;;;5035441;28;20029;-64
2024/03/15 08:42:55;;;;;;;7.28;2.97;;;13.80;99.90;;;;;;5038023;28;20369;-63
2024/03/15 08:45:21;;;;;;;8.73;3.55;;;13.90;99.90;;;;;;5038294;28;20074;-62
2024/03/15 08:47:47;;;;;;;11.73;3.20;;;13.90;99.90;;;;;;5035788;28;20243;-62
2024/03/15 08:50:14;;;;;;;9.10;3.05;;;13.80;99.90;;;;;;5046148;28;20112;-62
2024/03/15 08:52:40;;;;;;;11.07;3.75;;;13.80;99.90;;;;;;5044221;28;20028;-62
2024/03/15 08:55:10;;;;;;;8.50;3.60;;;13.80;99.90;;;;;;5038850;28;20321;-64
2024/03/15 08:57:36;;;;;;;6.40;2.72;;;13.90;99.90;;;;;;5044732;28;20056;-63
2024/03/15 09:00:06;;;;;;;8.75;2.83;;;14.00;99.90;;;;;;5042507;28;20061;-63
2024/03/15 09:02:32;;;;;;;9.80;3.05;;;13.80;99.90;;;;;;5037422;28;20116;-63
2024/03/15 09:04:57;;;;;;;9.63;3.85;;;13.80;99.90;;;;;;5042400;28;20460;-63
2024/03/15 09:07:24;;;;;;;9.07;3.63;;;13.80;99.90;;;;;;5040653;28;20132;-63
2024/03/15 09:09:50;;;;;;;9.10;3.40;;;14.00;99.90;;;;;;5042622;28;20072;-63
2024/03/15 09:12:16;;;;;;;8.63;3.42;;;14.10;99.90;;;;;;5041385;28;20539;-63
2024/03/15 09:14:43;;;;;;;10.85;3.22;;;14.20;99.90;;;;;;5040546;28;20036;-63
2024/03/15 09:17:12;;;;;;;8.07;2.58;;;14.20;99.90;;;;;;5042988;28;20036;-64
2024/03/15 09:19:38;;;;;;;7.37;2.77;;;14.20;99.90;;;;;;5036783;28;20030;-64
2024/03/15 09:22:03;;;;;;;11.35;3.40;;;14.20;99.90;;;;;;5037577;28;20044;-62
2024/03/15 09:24:31;;;;;;;7.45;3.42;;;14.40;99.90;;;;;;5040265;28;20072;-62
2024/03/15 09:26:57;;;;;;;8.35;3.55;;;14.50;99.90;;;;;;5042372;28;20029;-62
2024/03/15 09:29:23;;;;;;;10.20;4.13;;;14.40;99.90;;;;;;5046354;28;20484;-61
2024/03/15 09:31:51;;;;;;;8.77;4.10;;;14.30;99.90;;;;;;5045644;28;20037;-62
2024/03/15 09:34:17;;;;;;;8.93;4.13;;;14.20;99.90;;;;;;5040075;28;20041;-63
2024/03/15 09:36:43;;;;;;;10.13;4.05;;;14.10;99.90;;;;;;5045698;28;20038;-62
2024/03/15 09:39:11;;;;;;;8.90;3.60;;;14.20;99.90;;;;;;5048093;28;20032;-62
2024/03/15 09:41:38;;;;;;;10.45;4.22;;;14.20;99.90;;;;;;5048259;28;20025;-62
2024/03/15 09:44:09;;;;;;;9.73;4.35;;;14.20;99.90;;;;;;5043695;28;20104;-62
2024/03/15 09:46:37;;;;;;;10.38;3.83;;;14.30;99.90;;;;;;5033889;28;20486;-62
2024/03/15 09:49:05;;;;;;;11.80;3.92;;;14.50;99.90;;;;;;5043734;28;20021;-62
2024/03/15 09:51:31;;;;;;;10.25;4.55;;;14.60;99.90;;;;;;5046496;28;20450;-62
2024/03/15 09:53:57;;;;;;;10.02;4.20;;;14.50;99.90;;;;;;5045650;28;20035;-62
2024/03/15 09:56:25;;;;;;;10.57;3.97;;;14.40;99.90;;;;;;5038262;28;20041;-62
2024/03/15 09:58:53;;;;;;;8.73;3.85;;;12.90;99.90;;;;;;5058961;28;20483;-63
2024/03/15 10:01:19;;;;;;;8.70;3.70;;;14.40;99.90;;;;;;5035199;28;20021;-63
2024/03/15 10:03:48;;;;;;;11.05;4.40;;;14.40;99.90;;;;;;5040833;28;20014;-63
2024/03/15 10:06:19;;;;;;;12.07;4.47;;;14.60;99.90;;;;;;5044821;28;20473;-62
2024/03/15 10:08:45;;;;;;;12.95;4.97;;;14.60;99.90;;;;;;5045830;28;20025;-62
2024/03/15 10:11:11;;;;;;;12.52;4.63;;;14.70;99.90;;;;;;5043687;28;20741;-63
2024/03/15 10:13:36;;;;;;;8.07;3.72;;;14.80;99.90;;;;;;5046065;28;20052;-63
2024/03/15 10:16:05;;;;;;;11.95;4.30;;;15.00;99.90;;;;;;5044511;28;20054;-63
2024/03/15 10:18:39;;;;;;;10.15;3.95;;;15.30;99.90;;;;;;5038215;28;20025;-63
2024/03/15 10:21:05;;;;;;;10.38;3.92;;;15.40;99.90;;;;;;5047793;28;20034;-62
2024/03/15 10:23:31;;;;;;;9.23;3.17;;;15.70;99.90;;;;;;5038464;28;20037;-63
2024/03/15 10:25:56;;;;;;;9.65;3.28;;;15.90;99.90;;;;;;5042263;28;20057;-63
2024/03/15 10:28:22;;;;;;;8.80;3.13;;;15.90;99.90;;;;;;5045226;28;20372;-62
2024/03/15 10:30:49;;;;;;;9.77;3.28;;;16.00;99.90;;;;;;5041499;28;20041;-63
2024/03/15 10:33:18;;;;;;;8.75;3.20;;;15.90;99.90;;;;;;5036910;28;20159;-64
2024/03/15 10:35:43;;;;;;;7.53;3.05;;;15.90;99.90;;;;;;5044898;28;20025;-64
2024/03/15 10:38:14;;;;;;;9.07;3.20;;;15.90;99.90;;;;;;5048349;28;20363;-65
2024/03/15 10:40:40;;;;;;;9.20;3.25;;;16.00;99.90;;;;;;5042022;28;20441;-65
2024/03/15 10:43:10;;;;;;;7.95;3.10;;;16.10;99.90;;;;;;5041879;28;20033;-63
2024/03/15 10:45:36;;;;;;;9.93;3.30;;;16.50;99.90;;;;;;5040810;28;20116;-63
2024/03/15 10:48:08;;;;;;;7.45;2.70;;;16.80;99.90;;;;;;5040041;28;20731;-63
2024/03/15 10:50:35;;;;;;;6.75;2.60;;;17.20;99.90;;;;;;5041510;28;20435;-63
2024/03/15 10:53:05;;;;;;;8.15;2.67;;;17.50;99.90;;;;;;5041923;28;20071;-62
2024/03/15 10:55:31;;;;;;;7.28;2.78;;;17.70;99.90;;;;;;5042154;28;20128;-63
2024/03/15 10:58:05;;;;;;;8.52;2.90;;;17.80;99.90;;;;;;5047189;28;20506;-63
2024/03/15 11:00:31;;;;;;;14.32;3.03;;;17.50;99.90;;;;;;5039802;28;20069;-63
2024/03/15 11:03:09;;;;;;;7.72;2.78;;;17.10;99.90;;;;;;5045806;28;20029;-63
2024/03/15 11:05:35;;;;;;;8.15;2.90;;;16.70;99.90;;;;;;5049966;28;20163;-63
2024/03/15 11:08:16;;;;;;;7.53;2.95;;;16.50;99.90;;;;;;5051229;28;20112;-63
2024/03/15 11:10:55;;;;;;;8.43;2.28;;;16.40;99.90;;;;;;5045685;28;20052;-63
2024/03/15 11:13:25;;;;;;;9.00;3.08;;;16.30;99.90;;;;;;5039605;28;20028;-64
2024/03/15 11:15:55;;;;;;;8.98;3.03;;;16.20;99.90;;;;;;5038120;28;20060;-63
2024/03/15 11:18:21;;;;;;;7.63;3.53;;;15.90;99.90;;;;;;5042027;28;20033;-63
2024/03/15 11:20:54;;;;;;;9.25;2.95;;;15.80;99.90;;;;;;5047900;28;20064;-63
2024/03/15 11:23:24;;;;;;;7.03;2.75;;;15.70;99.90;;;;;;5049101;28;20107;-63
2024/03/15 11:25:59;;;;;;;10.82;3.78;;;15.60;99.90;;;;;;5045975;28;20033;-63
2024/03/15 11:28:30;;;;;;;6.57;2.85;;;15.60;99.90;;;;;;5055459;28;20029;-64
2024/03/15 11:30:57;;;;;;;7.68;2.53;;;15.60;99.90;;;;;;5051308;28;20043;-64
2024/03/15 11:33:25;;;;;;;6.15;2.20;;;15.60;99.90;;;;;;5041737;28;20020;-63
2024/03/15 11:35:51;;;;;;;5.88;2.28;;;15.40;99.90;;;;;;5040487;28;20033;-64
2024/03/15 11:38:19;;;;;;;5.28;1.80;;;15.30;99.90;;;;;;5039448;28;20047;-65
2024/03/15 11:40:45;;;;;;;6.25;1.83;;;15.20;99.90;;;;;;5049557;28;20566;-64
2024/03/15 11:43:12;;;;;;;8.25;2.30;;;15.30;99.90;;;;;;5036702;28;20065;-64
2024/03/15 11:45:39;;;;;;;6.70;2.10;;;15.50;99.90;;;;;;5040167;28;20076;-65
2024/03/15 11:48:18;;;;;;;5.70;1.98;;;15.70;99.90;;;;;;5038384;28;20353;-64
2024/03/15 11:50:52;;;;;;;6.13;2.10;;;15.90;99.90;;;;;;5049958;28;20031;-64
2024/03/15 11:53:19;;;;;;;6.07;1.80;;;16.10;99.90;;;;;;5039176;28;20033;-65
2024/03/15 11:55:46;;;;;;;5.47;1.60;;;16.70;99.90;;;;;;5043604;28;20414;-64
2024/03/15 11:58:19;;;;;;;6.28;2.10;;;17.00;99.90;;;;;;5034188;28;20039;-64
2024/03/15 12:00:53;;;;;;;6.55;1.67;;;17.50;99.90;;;;;;5040191;28;20029;-65
2024/03/15 12:03:22;;;;;;;5.65;1.60;;;18.20;99.90;;;;;;5043029;28;20052;-65
2024/03/15 12:05:48;;;;;;;5.65;1.92;;;;;;;;;;5043010;28;20029;-64
2024/03/15 12:08:20;;;;;;;6.63;2.10;;;18.70;99.90;;;;;;5040864;28;20247;-64
2024/03/15 12:10:47;;;;;;;5.85;1.70;;;19.20;99.90;;;;;;5040538;28;20063;-64
2024/03/15 12:13:28;;;;;;;7.25;1.90;;;18.80;99.90;;;;;;5042805;28;20108;-65
2024/03/15 12:15:54;;;;;;;5.85;1.88;;;18.60;99.90;;;;;;5038704;28;20053;-65
2024/03/15 12:18:24;;;;;;;4.50;1.50;;;18.40;99.90;;;;;;5040682;28;20086;-65
2024/03/15 12:20:51;;;;;;;10.07;2.05;;;18.90;99.90;;;;;;5047583;28;20472;-64
2024/03/15 12:23:19;;;;;;;5.97;1.50;;;19.10;99.90;;;;;;5037079;28;20100;-65
2024/03/15 12:25:45;;;;;;;4.43;1.42;;;19.30;99.90;;;;;;5038917;28;20040;-66
2024/03/15 12:28:12;;;;;;;5.47;1.42;;;19.90;99.90;;;;;;5042805;28;20100;-65
2024/03/15 12:30:42;;;;;;;5.40;1.30;;;20.80;97.70;;;;;;5047224;28;20037;-65
2024/03/15 12:33:08;;;;;;;4.60;1.50;;;21.10;95.70;;;;;;5038274;28;20599;-65
2024/03/15 12:35:35;;;;;;;3.85;1.20;;;20.80;94.40;;;;;;5039878;28;20056;-64
2024/03/15 12:38:00;;;;;;;4.05;1.20;;;20.40;94.70;;;;;;5050381;28;20116;-65
2024/03/15 12:40:26;;;;;;;3.97;1.10;;;19.70;96.30;;;;;;5042763;28;20125;-64
2024/03/15 12:42:52;;;;;;;4.38;1.20;;;18.90;98.40;;;;;;5038597;28;20228;-68
2024/03/15 12:45:18;;;;;;;6.07;1.33;;;19.30;98.40;;;;;;5042057;28;20083;-64
2024/03/15 12:47:43;;;;;;;6.18;1.83;;;20.30;96.00;;;;;;5040708;28;20423;-65